sensor_id;sensor_type;location;lat;lon;timestamp;P1;durP1;ratioP1;P2;durP2;ratioP2
28627;SDS011;15815;46.760;19.604;2023-06-14T00:01:47;14.20;;;6.07;;
28627;SDS011;15815;46.760;19.604;2023-06-14T00:04:13;8.80;;;5.65;;
28627;SDS011;15815;46.760;19.604;2023-06-14T00:06:39;7.70;;;5.88;;
28627;SDS011;15815;46.760;19.604;2023-06-14T00:09:05;7.70;;;5.57;;
28627;SDS011;15815;46.760;19.604;2023-06-14T00:11:31;9.30;;;5.43;;
28627;SDS011;15815;46.760;19.604;2023-06-14T00:13:57;13.25;;;6.15;;
28627;SDS011;15815;46.760;19.604;2023-06-14T00:16:23;8.45;;;6.05;;
28627;SDS011;15815;46.760;19.604;2023-06-14T00:18:49;9.52;;;6.32;;
28627;SDS011;15815;46.760;19.604;2023-06-14T00:21:16;9.68;;;6.55;;
28627;SDS011;15815;46.760;19.604;2023-06-14T00:23:42;11.88;;;6.15;;
28627;SDS011;15815;46.760;19.604;2023-06-14T00:26:07;9.48;;;6.43;;
28627;SDS011;15815;46.760;19.604;2023-06-14T00:28:40;7.03;;;5.75;;
28627;SDS011;15815;46.760;19.604;2023-06-14T00:33:31;9.83;;;6.00;;
28627;SDS011;15815;46.760;19.604;2023-06-14T00:36:10;10.88;;;5.95;;
28627;SDS011;15815;46.760;19.604;2023-06-14T00:38:37;7.80;;;6.13;;
28627;SDS011;15815;46.760;19.604;2023-06-14T00:41:03;9.85;;;6.07;;
28627;SDS011;15815;46.760;19.604;2023-06-14T00:43:29;9.27;;;6.65;;
28627;SDS011;15815;46.760;19.604;2023-06-14T00:45:55;14.25;;;8.88;;
28627;SDS011;15815;46.760;19.604;2023-06-14T00:48:27;12.05;;;8.13;;
28627;SDS011;15815;46.760;19.604;2023-06-14T00:50:57;9.27;;;6.93;;
28627;SDS011;15815;46.760;19.604;2023-06-14T00:53:33;8.35;;;6.68;;
28627;SDS011;15815;46.760;19.604;2023-06-14T00:56:00;10.07;;;6.55;;
28627;SDS011;15815;46.760;19.604;2023-06-14T01:01:14;11.07;;;8.25;;
28627;SDS011;15815;46.760;19.604;2023-06-14T01:03:43;16.52;;;7.82;;
28627;SDS011;15815;46.760;19.604;2023-06-14T01:06:54;13.35;;;7.43;;
28627;SDS011;15815;46.760;19.604;2023-06-14T01:14:26;11.77;;;8.38;;
28627;SDS011;15815;46.760;19.604;2023-06-14T01:16:54;12.20;;;7.93;;
28627;SDS011;15815;46.760;19.604;2023-06-14T01:21:55;12.35;;;9.00;;
28627;SDS011;15815;46.760;19.604;2023-06-14T01:24:21;13.93;;;8.95;;
28627;SDS011;15815;46.760;19.604;2023-06-14T01:26:47;11.77;;;8.55;;
28627;SDS011;15815;46.760;19.604;2023-06-14T01:29:14;14.93;;;8.45;;
28627;SDS011;15815;46.760;19.604;2023-06-14T01:31:40;10.85;;;8.23;;
28627;SDS011;15815;46.760;19.604;2023-06-14T01:34:09;11.45;;;8.02;;
28627;SDS011;15815;46.760;19.604;2023-06-14T01:36:36;15.30;;;8.98;;
28627;SDS011;15815;46.760;19.604;2023-06-14T01:39:05;10.73;;;8.20;;
28627;SDS011;15815;46.760;19.604;2023-06-14T01:41:32;14.75;;;9.15;;
28627;SDS011;15815;46.760;19.604;2023-06-14T01:44:01;15.00;;;8.23;;
28627;SDS011;15815;46.760;19.604;2023-06-14T01:46:29;11.60;;;7.93;;
28627;SDS011;15815;46.760;19.604;2023-06-14T01:48:55;12.00;;;8.85;;
28627;SDS011;15815;46.760;19.604;2023-06-14T01:51:22;15.23;;;9.18;;
28627;SDS011;15815;46.760;19.604;2023-06-14T01:53:48;11.50;;;8.55;;
28627;SDS011;15815;46.760;19.604;2023-06-14T01:56:13;15.55;;;9.20;;
28627;SDS011;15815;46.760;19.604;2023-06-14T01:58:39;12.40;;;8.70;;
28627;SDS011;15815;46.760;19.604;2023-06-14T02:04:00;10.70;;;7.70;;
28627;SDS011;15815;46.760;19.604;2023-06-14T02:06:36;14.82;;;8.20;;
28627;SDS011;15815;46.760;19.604;2023-06-14T02:09:02;10.70;;;7.63;;
28627;SDS011;15815;46.760;19.604;2023-06-14T02:11:28;13.00;;;9.27;;
28627;SDS011;15815;46.760;19.604;2023-06-14T02:13:58;17.08;;;9.57;;
28627;SDS011;15815;46.760;19.604;2023-06-14T02:16:24;14.65;;;8.65;;
28627;SDS011;15815;46.760;19.604;2023-06-14T02:18:50;11.23;;;7.90;;
28627;SDS011;15815;46.760;19.604;2023-06-14T02:21:15;13.45;;;8.23;;
28627;SDS011;15815;46.760;19.604;2023-06-14T02:23:41;13.07;;;9.20;;
28627;SDS011;15815;46.760;19.604;2023-06-14T02:26:07;13.30;;;7.85;;
28627;SDS011;15815;46.760;19.604;2023-06-14T02:28:33;15.77;;;8.07;;
28627;SDS011;15815;46.760;19.604;2023-06-14T02:30:59;10.05;;;7.57;;
28627;SDS011;15815;46.760;19.604;2023-06-14T02:33:25;13.50;;;8.38;;
28627;SDS011;15815;46.760;19.604;2023-06-14T02:35:51;11.93;;;7.47;;
28627;SDS011;15815;46.760;19.604;2023-06-14T02:38:16;16.02;;;8.00;;
28627;SDS011;15815;46.760;19.604;2023-06-14T02:40:42;13.18;;;8.52;;
28627;SDS011;15815;46.760;19.604;2023-06-14T02:43:08;15.07;;;9.52;;
28627;SDS011;15815;46.760;19.604;2023-06-14T02:45:34;14.05;;;8.27;;
28627;SDS011;15815;46.760;19.604;2023-06-14T02:48:00;13.68;;;8.75;;
28627;SDS011;15815;46.760;19.604;2023-06-14T02:50:26;13.45;;;9.23;;
28627;SDS011;15815;46.760;19.604;2023-06-14T02:52:52;19.10;;;9.23;;
28627;SDS011;15815;46.760;19.604;2023-06-14T02:55:18;14.57;;;9.63;;
28627;SDS011;15815;46.760;19.604;2023-06-14T02:57:43;14.13;;;9.40;;
28627;SDS011;15815;46.760;19.604;2023-06-14T03:00:24;16.63;;;9.60;;
28627;SDS011;15815;46.760;19.604;2023-06-14T03:02:50;13.55;;;8.88;;
28627;SDS011;15815;46.760;19.604;2023-06-14T03:05:16;17.40;;;9.90;;
28627;SDS011;15815;46.760;19.604;2023-06-14T03:07:42;17.38;;;10.05;;
28627;SDS011;15815;46.760;19.604;2023-06-14T03:10:08;17.65;;;9.60;;
28627;SDS011;15815;46.760;19.604;2023-06-14T03:12:35;13.57;;;9.10;;
28627;SDS011;15815;46.760;19.604;2023-06-14T03:15:01;13.25;;;8.90;;
28627;SDS011;15815;46.760;19.604;2023-06-14T03:17:34;15.30;;;9.38;;
28627;SDS011;15815;46.760;19.604;2023-06-14T03:20:00;13.95;;;9.88;;
28627;SDS011;15815;46.760;19.604;2023-06-14T03:22:26;14.25;;;9.95;;
28627;SDS011;15815;46.760;19.604;2023-06-14T03:24:52;12.77;;;8.93;;
28627;SDS011;15815;46.760;19.604;2023-06-14T03:27:18;13.88;;;9.20;;
28627;SDS011;15815;46.760;19.604;2023-06-14T03:29:44;27.33;;;9.48;;
28627;SDS011;15815;46.760;19.604;2023-06-14T03:32:12;12.02;;;8.98;;
28627;SDS011;15815;46.760;19.604;2023-06-14T03:34:38;17.10;;;10.35;;
28627;SDS011;15815;46.760;19.604;2023-06-14T03:37:04;14.55;;;9.85;;
28627;SDS011;15815;46.760;19.604;2023-06-14T03:39:34;17.98;;;9.85;;
28627;SDS011;15815;46.760;19.604;2023-06-14T03:42:03;18.63;;;10.98;;
28627;SDS011;15815;46.760;19.604;2023-06-14T03:44:29;13.65;;;9.55;;
28627;SDS011;15815;46.760;19.604;2023-06-14T03:46:54;16.25;;;9.60;;
28627;SDS011;15815;46.760;19.604;2023-06-14T03:49:20;15.13;;;9.85;;
28627;SDS011;15815;46.760;19.604;2023-06-14T03:51:46;17.10;;;10.32;;
28627;SDS011;15815;46.760;19.604;2023-06-14T03:54:11;14.63;;;9.85;;
28627;SDS011;15815;46.760;19.604;2023-06-14T03:56:37;18.50;;;10.23;;
28627;SDS011;15815;46.760;19.604;2023-06-14T03:59:03;14.20;;;9.38;;
28627;SDS011;15815;46.760;19.604;2023-06-14T04:01:29;14.77;;;9.88;;
28627;SDS011;15815;46.760;19.604;2023-06-14T04:04:04;15.40;;;9.88;;
28627;SDS011;15815;46.760;19.604;2023-06-14T04:12:45;13.73;;;10.10;;
28627;SDS011;15815;46.760;19.604;2023-06-14T04:15:11;17.55;;;10.40;;
28627;SDS011;15815;46.760;19.604;2023-06-14T04:17:37;14.27;;;9.25;;
28627;SDS011;15815;46.760;19.604;2023-06-14T04:20:03;14.98;;;9.80;;
28627;SDS011;15815;46.760;19.604;2023-06-14T04:22:33;15.68;;;10.55;;
28627;SDS011;15815;46.760;19.604;2023-06-14T04:25:00;13.52;;;9.20;;
28627;SDS011;15815;46.760;19.604;2023-06-14T04:27:26;11.80;;;8.70;;
28627;SDS011;15815;46.760;19.604;2023-06-14T04:29:52;16.80;;;9.00;;
28627;SDS011;15815;46.760;19.604;2023-06-14T04:32:20;12.77;;;8.23;;
28627;SDS011;15815;46.760;19.604;2023-06-14T04:34:46;13.98;;;8.60;;
28627;SDS011;15815;46.760;19.604;2023-06-14T04:37:12;14.10;;;8.40;;
28627;SDS011;15815;46.760;19.604;2023-06-14T04:39:38;13.98;;;8.85;;
28627;SDS011;15815;46.760;19.604;2023-06-14T04:42:04;12.68;;;8.45;;
28627;SDS011;15815;46.760;19.604;2023-06-14T04:44:29;10.05;;;7.05;;
28627;SDS011;15815;46.760;19.604;2023-06-14T04:46:56;11.40;;;7.60;;
28627;SDS011;15815;46.760;19.604;2023-06-14T04:49:26;11.03;;;7.57;;
28627;SDS011;15815;46.760;19.604;2023-06-14T04:51:52;11.05;;;7.65;;
28627;SDS011;15815;46.760;19.604;2023-06-14T04:54:17;9.95;;;6.90;;
28627;SDS011;15815;46.760;19.604;2023-06-14T04:56:43;14.77;;;7.22;;
28627;SDS011;15815;46.760;19.604;2023-06-14T04:59:15;11.30;;;8.02;;
28627;SDS011;15815;46.760;19.604;2023-06-14T05:01:46;12.18;;;7.40;;
28627;SDS011;15815;46.760;19.604;2023-06-14T05:04:12;11.15;;;7.85;;
28627;SDS011;15815;46.760;19.604;2023-06-14T05:06:40;9.60;;;6.55;;
28627;SDS011;15815;46.760;19.604;2023-06-14T05:09:06;14.52;;;7.18;;
28627;SDS011;15815;46.760;19.604;2023-06-14T05:11:38;8.52;;;6.43;;
28627;SDS011;15815;46.760;19.604;2023-06-14T05:14:07;8.55;;;6.63;;
28627;SDS011;15815;46.760;19.604;2023-06-14T05:16:34;11.95;;;6.82;;
28627;SDS011;15815;46.760;19.604;2023-06-14T05:18:59;11.23;;;6.65;;
28627;SDS011;15815;46.760;19.604;2023-06-14T05:21:28;8.05;;;6.13;;
28627;SDS011;15815;46.760;19.604;2023-06-14T05:23:54;8.50;;;6.70;;
28627;SDS011;15815;46.760;19.604;2023-06-14T05:26:20;10.45;;;6.20;;
28627;SDS011;15815;46.760;19.604;2023-06-14T05:28:58;10.38;;;6.93;;
28627;SDS011;15815;46.760;19.604;2023-06-14T05:36:32;14.23;;;6.65;;
28627;SDS011;15815;46.760;19.604;2023-06-14T05:39:10;13.38;;;5.78;;
28627;SDS011;15815;46.760;19.604;2023-06-14T05:41:39;8.30;;;6.10;;
28627;SDS011;15815;46.760;19.604;2023-06-14T05:44:20;6.65;;;5.78;;
28627;SDS011;15815;46.760;19.604;2023-06-14T05:57:15;6.00;;;4.90;;
28627;SDS011;15815;46.760;19.604;2023-06-14T06:07:42;7.10;;;3.95;;
28627;SDS011;15815;46.760;19.604;2023-06-14T06:17:55;8.13;;;4.00;;
28627;SDS011;15815;46.760;19.604;2023-06-14T06:20:23;9.73;;;4.10;;
28627;SDS011;15815;46.760;19.604;2023-06-14T06:22:59;11.25;;;3.40;;
28627;SDS011;15815;46.760;19.604;2023-06-14T06:25:31;8.57;;;4.05;;
28627;SDS011;15815;46.760;19.604;2023-06-14T06:27:59;7.85;;;3.72;;
28627;SDS011;15815;46.760;19.604;2023-06-14T06:33:25;7.80;;;3.72;;
28627;SDS011;15815;46.760;19.604;2023-06-14T06:36:10;4.40;;;3.65;;
28627;SDS011;15815;46.760;19.604;2023-06-14T06:41:13;6.70;;;3.25;;
28627;SDS011;15815;46.760;19.604;2023-06-14T06:47:00;6.40;;;3.33;;
28627;SDS011;15815;46.760;19.604;2023-06-14T06:49:45;4.35;;;3.55;;
28627;SDS011;15815;46.760;19.604;2023-06-14T06:55:16;4.65;;;3.08;;
28627;SDS011;15815;46.760;19.604;2023-06-14T07:13:15;6.20;;;3.17;;
28627;SDS011;15815;46.760;19.604;2023-06-14T07:15:53;5.00;;;3.38;;
28627;SDS011;15815;46.760;19.604;2023-06-14T07:19:13;3.70;;;2.88;;
28627;SDS011;15815;46.760;19.604;2023-06-14T07:24:55;3.22;;;2.55;;
28627;SDS011;15815;46.760;19.604;2023-06-14T07:31:09;3.90;;;2.78;;
28627;SDS011;15815;46.760;19.604;2023-06-14T07:39:02;5.78;;;1.90;;
28627;SDS011;15815;46.760;19.604;2023-06-14T08:41:27;4.18;;;1.77;;
28627;SDS011;15815;46.760;19.604;2023-06-14T08:49:46;3.05;;;1.73;;
28627;SDS011;15815;46.760;19.604;2023-06-14T09:00:01;4.30;;;1.77;;
28627;SDS011;15815;46.760;19.604;2023-06-14T09:08:15;7.32;;;1.90;;
28627;SDS011;15815;46.760;19.604;2023-06-14T09:14:01;5.80;;;1.88;;
28627;SDS011;15815;46.760;19.604;2023-06-14T09:16:27;3.80;;;1.67;;
28627;SDS011;15815;46.760;19.604;2023-06-14T09:34:15;2.45;;;1.50;;
28627;SDS011;15815;46.760;19.604;2023-06-14T09:53:37;2.28;;;1.65;;
28627;SDS011;15815;46.760;19.604;2023-06-14T09:56:17;3.22;;;1.90;;
28627;SDS011;15815;46.760;19.604;2023-06-14T10:13:10;2.72;;;1.83;;
28627;SDS011;15815;46.760;19.604;2023-06-14T10:16:09;2.05;;;1.83;;
28627;SDS011;15815;46.760;19.604;2023-06-14T10:24:17;3.33;;;1.77;;
28627;SDS011;15815;46.760;19.604;2023-06-14T10:32:16;3.40;;;2.08;;
28627;SDS011;15815;46.760;19.604;2023-06-14T10:50:42;8.38;;;2.47;;
28627;SDS011;15815;46.760;19.604;2023-06-14T11:04:55;6.85;;;2.08;;
28627;SDS011;15815;46.760;19.604;2023-06-14T11:23:02;5.30;;;2.28;;
28627;SDS011;15815;46.760;19.604;2023-06-14T11:30:40;5.20;;;2.10;;
28627;SDS011;15815;46.760;19.604;2023-06-14T11:56:58;6.63;;;2.50;;
28627;SDS011;15815;46.760;19.604;2023-06-14T12:35:20;7.32;;;3.17;;
28627;SDS011;15815;46.760;19.604;2023-06-14T13:47:17;6.82;;;2.70;;
28627;SDS011;15815;46.760;19.604;2023-06-14T14:28:43;2.75;;;2.25;;
28627;SDS011;15815;46.760;19.604;2023-06-14T15:27:07;6.22;;;2.55;;
28627;SDS011;15815;46.760;19.604;2023-06-14T15:45:11;4.35;;;2.97;;
28627;SDS011;15815;46.760;19.604;2023-06-14T16:03:39;10.98;;;2.40;;
28627;SDS011;15815;46.760;19.604;2023-06-14T16:06:30;3.92;;;2.65;;
28627;SDS011;15815;46.760;19.604;2023-06-14T16:08:55;5.43;;;2.80;;
28627;SDS011;15815;46.760;19.604;2023-06-14T16:11:21;3.33;;;2.67;;
28627;SDS011;15815;46.760;19.604;2023-06-14T16:13:47;6.22;;;2.80;;
28627;SDS011;15815;46.760;19.604;2023-06-14T16:16:14;7.55;;;2.72;;
28627;SDS011;15815;46.760;19.604;2023-06-14T16:18:39;5.60;;;2.80;;
28627;SDS011;15815;46.760;19.604;2023-06-14T16:21:05;4.93;;;2.70;;
28627;SDS011;15815;46.760;19.604;2023-06-14T16:23:34;5.50;;;2.35;;
28627;SDS011;15815;46.760;19.604;2023-06-14T16:26:00;6.85;;;2.13;;
28627;SDS011;15815;46.760;19.604;2023-06-14T16:28:26;7.35;;;2.65;;
28627;SDS011;15815;46.760;19.604;2023-06-14T16:30:56;3.78;;;2.38;;
28627;SDS011;15815;46.760;19.604;2023-06-14T16:33:22;3.65;;;2.50;;
28627;SDS011;15815;46.760;19.604;2023-06-14T16:35:56;9.13;;;2.97;;
28627;SDS011;15815;46.760;19.604;2023-06-14T16:38:22;6.18;;;2.40;;
28627;SDS011;15815;46.760;19.604;2023-06-14T16:40:48;4.57;;;2.53;;
28627;SDS011;15815;46.760;19.604;2023-06-14T16:43:14;94.07;;;6.47;;
28627;SDS011;15815;46.760;19.604;2023-06-14T16:45:40;4.97;;;2.85;;
28627;SDS011;15815;46.760;19.604;2023-06-14T16:48:05;6.10;;;2.97;;
28627;SDS011;15815;46.760;19.604;2023-06-14T16:50:44;7.93;;;2.95;;
28627;SDS011;15815;46.760;19.604;2023-06-14T16:53:12;9.93;;;2.90;;
28627;SDS011;15815;46.760;19.604;2023-06-14T16:55:38;5.82;;;2.25;;
28627;SDS011;15815;46.760;19.604;2023-06-14T16:58:04;5.22;;;2.88;;
28627;SDS011;15815;46.760;19.604;2023-06-14T17:00:29;4.30;;;2.60;;
28627;SDS011;15815;46.760;19.604;2023-06-14T17:05:24;10.68;;;2.85;;
28627;SDS011;15815;46.760;19.604;2023-06-14T17:07:59;3.90;;;2.90;;
28627;SDS011;15815;46.760;19.604;2023-06-14T17:10:28;6.63;;;2.60;;
28627;SDS011;15815;46.760;19.604;2023-06-14T17:12:53;5.85;;;2.97;;
28627;SDS011;15815;46.760;19.604;2023-06-14T17:15:26;6.18;;;2.80;;
28627;SDS011;15815;46.760;19.604;2023-06-14T17:17:52;15.05;;;3.30;;
28627;SDS011;15815;46.760;19.604;2023-06-14T17:20:18;6.82;;;2.72;;
28627;SDS011;15815;46.760;19.604;2023-06-14T17:22:44;6.22;;;2.97;;
28627;SDS011;15815;46.760;19.604;2023-06-14T17:25:12;4.10;;;2.80;;
28627;SDS011;15815;46.760;19.604;2023-06-14T17:27:38;7.88;;;3.50;;
28627;SDS011;15815;46.760;19.604;2023-06-14T17:30:04;7.25;;;2.95;;
28627;SDS011;15815;46.760;19.604;2023-06-14T17:32:30;5.10;;;3.10;;
28627;SDS011;15815;46.760;19.604;2023-06-14T17:34:56;4.68;;;3.00;;
28627;SDS011;15815;46.760;19.604;2023-06-14T17:37:22;11.98;;;3.28;;
28627;SDS011;15815;46.760;19.604;2023-06-14T17:39:48;5.72;;;3.35;;
28627;SDS011;15815;46.760;19.604;2023-06-14T17:42:19;12.05;;;3.33;;
28627;SDS011;15815;46.760;19.604;2023-06-14T17:44:45;6.05;;;2.65;;
28627;SDS011;15815;46.760;19.604;2023-06-14T17:47:14;4.85;;;2.97;;
28627;SDS011;15815;46.760;19.604;2023-06-14T17:49:41;9.73;;;3.10;;
28627;SDS011;15815;46.760;19.604;2023-06-14T17:52:07;5.85;;;2.83;;
28627;SDS011;15815;46.760;19.604;2023-06-14T17:54:33;11.85;;;3.65;;
28627;SDS011;15815;46.760;19.604;2023-06-14T17:56:59;8.45;;;2.78;;
28627;SDS011;15815;46.760;19.604;2023-06-14T17:59:28;9.80;;;3.38;;
28627;SDS011;15815;46.760;19.604;2023-06-14T18:01:53;7.07;;;3.42;;
28627;SDS011;15815;46.760;19.604;2023-06-14T18:04:32;18.98;;;3.63;;
28627;SDS011;15815;46.760;19.604;2023-06-14T18:22:59;4.75;;;3.00;;
28627;SDS011;15815;46.760;19.604;2023-06-14T18:25:25;7.32;;;2.97;;
28627;SDS011;15815;46.760;19.604;2023-06-14T18:27:51;6.75;;;3.22;;
28627;SDS011;15815;46.760;19.604;2023-06-14T18:30:19;6.90;;;3.38;;
28627;SDS011;15815;46.760;19.604;2023-06-14T18:32:46;8.73;;;3.53;;
28627;SDS011;15815;46.760;19.604;2023-06-14T18:35:13;7.00;;;3.80;;
28627;SDS011;15815;46.760;19.604;2023-06-14T18:37:39;10.77;;;3.78;;
28627;SDS011;15815;46.760;19.604;2023-06-14T18:40:06;11.80;;;3.90;;
28627;SDS011;15815;46.760;19.604;2023-06-14T18:42:32;14.98;;;3.60;;
28627;SDS011;15815;46.760;19.604;2023-06-14T18:44:58;37.10;;;4.20;;
28627;SDS011;15815;46.760;19.604;2023-06-14T18:47:24;12.20;;;3.63;;
28627;SDS011;15815;46.760;19.604;2023-06-14T18:49:49;11.25;;;3.67;;
28627;SDS011;15815;46.760;19.604;2023-06-14T18:52:21;10.30;;;3.58;;
28627;SDS011;15815;46.760;19.604;2023-06-14T18:54:47;14.25;;;3.95;;
28627;SDS011;15815;46.760;19.604;2023-06-14T18:57:13;10.73;;;3.80;;
28627;SDS011;15815;46.760;19.604;2023-06-14T18:59:39;15.52;;;3.47;;
28627;SDS011;15815;46.760;19.604;2023-06-14T19:02:15;10.38;;;3.67;;
28627;SDS011;15815;46.760;19.604;2023-06-14T19:04:41;13.23;;;3.42;;
28627;SDS011;15815;46.760;19.604;2023-06-14T19:07:07;20.15;;;4.75;;
28627;SDS011;15815;46.760;19.604;2023-06-14T19:09:32;10.25;;;3.80;;
28627;SDS011;15815;46.760;19.604;2023-06-14T19:14:26;11.95;;;4.65;;
28627;SDS011;15815;46.760;19.604;2023-06-14T19:16:52;13.48;;;5.20;;
28627;SDS011;15815;46.760;19.604;2023-06-14T19:19:21;13.13;;;4.88;;
28627;SDS011;15815;46.760;19.604;2023-06-14T19:21:47;11.65;;;4.72;;
28627;SDS011;15815;46.760;19.604;2023-06-14T19:24:13;17.02;;;5.57;;
28627;SDS011;15815;46.760;19.604;2023-06-14T19:26:39;10.50;;;5.13;;
28627;SDS011;15815;46.760;19.604;2023-06-14T19:29:18;7.65;;;4.70;;
28627;SDS011;15815;46.760;19.604;2023-06-14T19:31:44;15.85;;;4.78;;
28627;SDS011;15815;46.760;19.604;2023-06-14T19:34:10;8.73;;;4.35;;
28627;SDS011;15815;46.760;19.604;2023-06-14T19:36:35;11.73;;;4.78;;
28627;SDS011;15815;46.760;19.604;2023-06-14T19:39:01;12.65;;;5.47;;
28627;SDS011;15815;46.760;19.604;2023-06-14T19:41:27;13.85;;;4.93;;
28627;SDS011;15815;46.760;19.604;2023-06-14T19:43:55;11.93;;;4.78;;
28627;SDS011;15815;46.760;19.604;2023-06-14T19:46:21;12.80;;;4.43;;
28627;SDS011;15815;46.760;19.604;2023-06-14T19:48:50;10.93;;;4.35;;
28627;SDS011;15815;46.760;19.604;2023-06-14T19:54:04;10.25;;;4.43;;
28627;SDS011;15815;46.760;19.604;2023-06-14T19:56:42;7.80;;;4.30;;
28627;SDS011;15815;46.760;19.604;2023-06-14T19:59:08;14.35;;;4.88;;
28627;SDS011;15815;46.760;19.604;2023-06-14T20:01:36;13.05;;;5.60;;
28627;SDS011;15815;46.760;19.604;2023-06-14T20:04:02;9.30;;;4.97;;
28627;SDS011;15815;46.760;19.604;2023-06-14T20:06:28;11.90;;;5.55;;
28627;SDS011;15815;46.760;19.604;2023-06-14T20:08:54;10.32;;;5.25;;
28627;SDS011;15815;46.760;19.604;2023-06-14T20:11:20;11.95;;;5.38;;
28627;SDS011;15815;46.760;19.604;2023-06-14T20:13:50;12.10;;;5.50;;
28627;SDS011;15815;46.760;19.604;2023-06-14T20:16:16;9.88;;;6.00;;
28627;SDS011;15815;46.760;19.604;2023-06-14T20:18:45;18.20;;;6.35;;
28627;SDS011;15815;46.760;19.604;2023-06-14T20:21:11;17.15;;;5.85;;
28627;SDS011;15815;46.760;19.604;2023-06-14T20:23:41;8.50;;;5.20;;
28627;SDS011;15815;46.760;19.604;2023-06-14T20:26:07;18.83;;;6.05;;
28627;SDS011;15815;46.760;19.604;2023-06-14T20:28:32;8.73;;;5.63;;
28627;SDS011;15815;46.760;19.604;2023-06-14T20:35:56;13.18;;;5.10;;
28627;SDS011;15815;46.760;19.604;2023-06-14T20:38:22;12.60;;;5.53;;
28627;SDS011;15815;46.760;19.604;2023-06-14T20:40:48;14.25;;;5.43;;
28627;SDS011;15815;46.760;19.604;2023-06-14T20:43:14;18.67;;;5.85;;
28627;SDS011;15815;46.760;19.604;2023-06-14T20:45:40;10.75;;;5.60;;
28627;SDS011;15815;46.760;19.604;2023-06-14T20:48:07;10.80;;;5.68;;
28627;SDS011;15815;46.760;19.604;2023-06-14T20:50:34;12.63;;;5.65;;
28627;SDS011;15815;46.760;19.604;2023-06-14T20:53:00;9.90;;;5.85;;
28627;SDS011;15815;46.760;19.604;2023-06-14T20:55:29;12.40;;;5.82;;
28627;SDS011;15815;46.760;19.604;2023-06-14T20:57:57;12.73;;;6.13;;
28627;SDS011;15815;46.760;19.604;2023-06-14T21:00:23;9.10;;;5.68;;
28627;SDS011;15815;46.760;19.604;2023-06-14T21:02:55;13.80;;;6.50;;
28627;SDS011;15815;46.760;19.604;2023-06-14T21:05:27;18.13;;;6.90;;
28627;SDS011;15815;46.760;19.604;2023-06-14T21:07:54;14.70;;;6.57;;
28627;SDS011;15815;46.760;19.604;2023-06-14T21:12:55;12.07;;;6.07;;
28627;SDS011;15815;46.760;19.604;2023-06-14T21:15:23;13.73;;;6.90;;
28627;SDS011;15815;46.760;19.604;2023-06-14T21:17:55;13.35;;;7.55;;
28627;SDS011;15815;46.760;19.604;2023-06-14T21:20:21;21.15;;;7.30;;
28627;SDS011;15815;46.760;19.604;2023-06-14T21:22:54;18.38;;;6.50;;
28627;SDS011;15815;46.760;19.604;2023-06-14T21:25:19;11.88;;;6.95;;
28627;SDS011;15815;46.760;19.604;2023-06-14T21:27:52;25.17;;;7.25;;
28627;SDS011;15815;46.760;19.604;2023-06-14T21:30:37;14.35;;;6.60;;
28627;SDS011;15815;46.760;19.604;2023-06-14T21:33:03;12.52;;;7.22;;
28627;SDS011;15815;46.760;19.604;2023-06-14T21:35:32;19.55;;;7.47;;
28627;SDS011;15815;46.760;19.604;2023-06-14T21:38:07;16.00;;;7.53;;
28627;SDS011;15815;46.760;19.604;2023-06-14T21:43:09;14.32;;;7.07;;
28627;SDS011;15815;46.760;19.604;2023-06-14T21:45:35;15.52;;;7.55;;
28627;SDS011;15815;46.760;19.604;2023-06-14T21:48:00;16.88;;;7.45;;
28627;SDS011;15815;46.760;19.604;2023-06-14T21:50:27;12.30;;;6.55;;
28627;SDS011;15815;46.760;19.604;2023-06-14T21:52:55;14.43;;;7.80;;
28627;SDS011;15815;46.760;19.604;2023-06-14T21:55:21;13.45;;;7.40;;
28627;SDS011;15815;46.760;19.604;2023-06-14T21:57:47;12.15;;;6.47;;
28627;SDS011;15815;46.760;19.604;2023-06-14T22:00:13;13.13;;;7.20;;
28627;SDS011;15815;46.760;19.604;2023-06-14T22:02:39;17.13;;;7.22;;
28627;SDS011;15815;46.760;19.604;2023-06-14T22:05:05;11.65;;;7.20;;
28627;SDS011;15815;46.760;19.604;2023-06-14T22:07:31;13.65;;;7.88;;
28627;SDS011;15815;46.760;19.604;2023-06-14T22:09:57;16.75;;;7.28;;
28627;SDS011;15815;46.760;19.604;2023-06-14T22:12:25;13.75;;;7.53;;
28627;SDS011;15815;46.760;19.604;2023-06-14T22:14:51;15.13;;;7.93;;
28627;SDS011;15815;46.760;19.604;2023-06-14T22:17:17;12.60;;;7.88;;
28627;SDS011;15815;46.760;19.604;2023-06-14T22:19:43;18.80;;;7.72;;
28627;SDS011;15815;46.760;19.604;2023-06-14T22:22:09;17.67;;;7.85;;
28627;SDS011;15815;46.760;19.604;2023-06-14T22:24:37;14.88;;;7.68;;
28627;SDS011;15815;46.760;19.604;2023-06-14T22:27:03;13.82;;;8.60;;
28627;SDS011;15815;46.760;19.604;2023-06-14T22:29:29;13.13;;;7.18;;
28627;SDS011;15815;46.760;19.604;2023-06-14T22:31:55;11.02;;;6.82;;
28627;SDS011;15815;46.760;19.604;2023-06-14T22:34:22;20.20;;;7.30;;
28627;SDS011;15815;46.760;19.604;2023-06-14T22:36:48;12.98;;;7.10;;
28627;SDS011;15815;46.760;19.604;2023-06-14T22:39:14;10.23;;;7.35;;
28627;SDS011;15815;46.760;19.604;2023-06-14T22:41:40;17.98;;;7.35;;
28627;SDS011;15815;46.760;19.604;2023-06-14T22:44:06;14.85;;;7.40;;
28627;SDS011;15815;46.760;19.604;2023-06-14T22:46:34;17.33;;;7.43;;
28627;SDS011;15815;46.760;19.604;2023-06-14T22:49:09;10.60;;;7.35;;
28627;SDS011;15815;46.760;19.604;2023-06-14T22:51:36;12.93;;;7.03;;
28627;SDS011;15815;46.760;19.604;2023-06-14T22:54:04;12.57;;;7.88;;
28627;SDS011;15815;46.760;19.604;2023-06-14T22:56:30;11.63;;;7.93;;
28627;SDS011;15815;46.760;19.604;2023-06-14T22:58:56;10.43;;;7.45;;
28627;SDS011;15815;46.760;19.604;2023-06-14T23:01:25;11.65;;;7.60;;
28627;SDS011;15815;46.760;19.604;2023-06-14T23:03:52;15.10;;;8.23;;
28627;SDS011;15815;46.760;19.604;2023-06-14T23:06:18;17.17;;;8.05;;
28627;SDS011;15815;46.760;19.604;2023-06-14T23:08:44;19.38;;;8.27;;
28627;SDS011;15815;46.760;19.604;2023-06-14T23:11:10;13.27;;;7.32;;
28627;SDS011;15815;46.760;19.604;2023-06-14T23:13:37;12.07;;;6.97;;
28627;SDS011;15815;46.760;19.604;2023-06-14T23:16:03;12.48;;;7.35;;
28627;SDS011;15815;46.760;19.604;2023-06-14T23:18:29;14.27;;;7.60;;
28627;SDS011;15815;46.760;19.604;2023-06-14T23:20:55;11.68;;;7.20;;
28627;SDS011;15815;46.760;19.604;2023-06-14T23:23:21;16.63;;;7.43;;
28627;SDS011;15815;46.760;19.604;2023-06-14T23:25:47;11.05;;;7.88;;
28627;SDS011;15815;46.760;19.604;2023-06-14T23:28:12;14.32;;;7.97;;
28627;SDS011;15815;46.760;19.604;2023-06-14T23:30:38;13.93;;;7.95;;
28627;SDS011;15815;46.760;19.604;2023-06-14T23:33:07;20.95;;;8.02;;
28627;SDS011;15815;46.760;19.604;2023-06-14T23:35:34;11.07;;;7.68;;
28627;SDS011;15815;46.760;19.604;2023-06-14T23:38:00;18.80;;;7.90;;
28627;SDS011;15815;46.760;19.604;2023-06-14T23:40:26;12.82;;;7.65;;
28627;SDS011;15815;46.760;19.604;2023-06-14T23:42:52;12.52;;;8.50;;
28627;SDS011;15815;46.760;19.604;2023-06-14T23:45:17;19.65;;;8.65;;
28627;SDS011;15815;46.760;19.604;2023-06-14T23:47:53;17.45;;;9.70;;
28627;SDS011;15815;46.760;19.604;2023-06-14T23:50:27;18.70;;;10.57;;
28627;SDS011;15815;46.760;19.604;2023-06-14T23:55:35;15.88;;;9.93;;
28627;SDS011;15815;46.760;19.604;2023-06-14T23:58:01;21.73;;;11.20;;
